Time;durP1;ratioP1;P1;durP2;ratioP2;P2;SDS_P1;SDS_P2;PMS_P1;PMS_P2;Temp;Humidity;BMP_temperature;BMP_pressure;BME280_temperature;BME280_humidity;BME280_pressure;Samples;Min_cycle;Max_cycle;Signal;HPM_P1;HPM_P2
2021/11/16 00:05:08;;;;;;;4.07;2.40;;;22.20;55.10;;;;;;5041276;28;20508;-76
2021/11/16 00:07:34;;;;;;;3.27;2.77;;;22.20;55.10;;;;;;5030233;28;20429;-78
2021/11/16 00:09:59;;;;;;;2.97;2.60;;;22.10;55.10;;;;;;5030801;28;20414;-78
2021/11/16 00:12:26;;;;;;;2.30;2.10;;;22.20;55.20;;;;;;5030360;28;20447;-78
2021/11/16 00:14:54;;;;;;;3.20;2.70;;;22.10;55.10;;;;;;5030774;28;20430;-78
2021/11/16 00:17:23;;;;;;;3.00;2.53;;;22.20;55.20;;;;;;5048040;28;20425;-78
2021/11/16 00:19:50;;;;;;;3.10;2.60;;;22.20;55.10;;;;;;5048313;28;20414;-78
2021/11/16 00:22:18;;;;;;;2.50;2.20;;;22.20;55.10;;;;;;5045662;28;20430;-78
2021/11/16 00:25:09;;;;;;;3.67;2.47;;;22.20;55.20;;;;;;5030277;28;20461;-78
2021/11/16 00:27:36;;;;;;;4.73;3.63;;;22.10;55.10;;;;;;5030215;28;20445;-78
2021/11/16 00:30:05;;;;;;;3.90;2.43;;;22.10;55.10;;;;;;5046950;28;20414;-77
2021/11/16 00:32:31;;;;;;;2.60;2.40;;;22.10;55.10;;;;;;5048100;28;20426;-78
2021/11/16 00:34:56;;;;;;;3.67;2.40;;;22.10;55.10;;;;;;5047490;28;20493;-78
2021/11/16 00:37:26;;;;;;;3.47;2.40;;;22.10;55.10;;;;;;5047730;28;20512;-78
2021/11/16 00:39:58;;;;;;;2.70;2.17;;;22.10;55.10;;;;;;5046764;28;20188;-79
2021/11/16 00:42:25;;;;;;;2.63;2.30;;;22.10;55.10;;;;;;5047294;28;20414;-78
2021/11/16 00:44:51;;;;;;;3.10;2.17;;;22.10;55.10;;;;;;5030157;28;20465;-78
2021/11/16 00:47:18;;;;;;;4.40;2.10;;;22.10;55.10;;;;;;5029400;28;20434;-78
2021/11/16 00:49:45;;;;;;;2.90;2.50;;;22.10;55.10;;;;;;5047745;28;20418;-78
2021/11/16 00:52:13;;;;;;;1.77;1.57;;;22.10;55.10;;;;;;5047589;28;20445;-78
2021/11/16 00:54:40;;;;;;;2.43;2.23;;;22.10;55.10;;;;;;5029403;28;20457;-78
2021/11/16 00:57:06;;;;;;;3.00;2.63;;;22.10;55.10;;;;;;5045672;28;20427;-79
2021/11/16 00:59:32;;;;;;;2.73;2.27;;;22.10;55.10;;;;;;5029950;28;20430;-78
2021/11/16 01:01:59;;;;;;;2.53;2.27;;;22.10;55.10;;;;;;5029708;28;20430;-78
2021/11/16 01:04:31;;;;;;;2.77;2.47;;;22.10;55.10;;;;;;5029378;28;20458;-78
2021/11/16 01:06:57;;;;;;;2.50;2.13;;;22.10;55.10;;;;;;5029623;28;20407;-79
2021/11/16 01:09:23;;;;;;;3.30;2.43;;;22.10;55.10;;;;;;5047906;28;20414;-78
2021/11/16 01:11:50;;;;;;;2.20;1.97;;;22.10;55.20;;;;;;5030006;28;20501;-78
2021/11/16 01:14:16;;;;;;;3.37;2.47;;;22.10;55.10;;;;;;5046216;28;20426;-78
2021/11/16 01:16:45;;;;;;;4.03;2.60;;;22.10;55.10;;;;;;5029121;28;20978;-78
2021/11/16 01:19:11;;;;;;;3.23;2.63;;;22.10;55.20;;;;;;5029456;28;20190;-78
2021/11/16 01:24:59;;;;;;;3.07;2.60;;;22.10;55.10;;;;;;5050409;28;20477;-78
2021/11/16 01:27:26;;;;;;;3.33;2.10;;;22.10;55.20;;;;;;5033090;28;20434;-78
2021/11/16 01:29:54;;;;;;;2.90;2.30;;;22.10;55.20;;;;;;5046505;28;20469;-78
2021/11/16 01:32:35;;;;;;;2.87;2.63;;;22.00;55.20;;;;;;5032193;28;20438;-78
2021/11/16 01:35:01;;;;;;;6.10;3.07;;;22.10;55.20;;;;;;5013904;28;20465;-78
2021/11/16 01:37:27;;;;;;;2.77;2.10;;;22.00;55.20;;;;;;5031177;28;20872;-78
2021/11/16 01:39:53;;;;;;;2.50;2.20;;;22.10;55.30;;;;;;5030483;28;20172;-78
2021/11/16 01:42:20;;;;;;;3.07;2.27;;;22.00;55.10;;;;;;5013703;28;20427;-78
2021/11/16 01:44:47;;;;;;;3.50;2.70;;;22.10;55.30;;;;;;5035271;28;20530;-78
2021/11/16 01:47:16;;;;;;;2.50;2.00;;;22.00;55.10;;;;;;5032640;28;20488;-78
2021/11/16 01:49:42;;;;;;;3.07;2.47;;;22.10;55.30;;;;;;5032512;28;20424;-78
2021/11/16 01:52:09;;;;;;;2.40;2.20;;;22.10;55.30;;;;;;5050891;28;20477;-78
2021/11/16 01:54:36;;;;;;;2.90;2.60;;;22.00;55.20;;;;;;5032627;28;20422;-79
2021/11/16 01:57:04;;;;;;;2.60;2.20;;;22.00;55.20;;;;;;5050188;28;20410;-79
2021/11/16 01:59:30;;;;;;;2.87;2.30;;;22.00;55.20;;;;;;5049665;28;20422;-78
2021/11/16 02:02:01;;;;;;;2.40;1.83;;;22.00;55.20;;;;;;5032938;28;20418;-78
2021/11/16 02:04:27;;;;;;;2.40;2.20;;;22.00;55.20;;;;;;5050303;28;20442;-78
2021/11/16 02:06:56;;;;;;;4.70;2.83;;;22.00;55.20;;;;;;5032217;28;20414;-78
2021/11/16 02:09:21;;;;;;;2.87;2.03;;;22.00;55.20;;;;;;5050185;28;20769;-78
2021/11/16 02:11:47;;;;;;;2.33;2.10;;;22.00;55.20;;;;;;5033193;28;20414;-78
2021/11/16 02:14:16;;;;;;;3.60;2.60;;;22.00;55.20;;;;;;5032709;28;20180;-78
2021/11/16 02:16:43;;;;;;;3.10;2.33;;;22.00;55.20;;;;;;5033034;28;20186;-78
2021/11/16 02:19:12;;;;;;;2.23;2.03;;;22.00;55.20;;;;;;5032578;28;20422;-78
2021/11/16 02:21:39;;;;;;;2.70;2.10;;;22.00;55.20;;;;;;5051121;28;20426;-79
2021/11/16 02:24:07;;;;;;;2.43;2.10;;;22.00;55.20;;;;;;5050316;28;20457;-78
2021/11/16 02:26:34;;;;;;;2.57;2.10;;;22.00;55.20;;;;;;5033210;28;20422;-78
2021/11/16 02:29:00;;;;;;;3.57;3.00;;;22.00;55.20;;;;;;5032204;28;20418;-78
2021/11/16 02:31:30;;;;;;;3.20;2.10;;;22.00;55.20;;;;;;5050713;28;20411;-77
2021/11/16 02:33:56;;;;;;;2.80;2.30;;;22.00;55.20;;;;;;5033207;28;20422;-78
2021/11/16 02:36:25;;;;;;;3.20;2.57;;;22.00;55.20;;;;;;5031156;28;20426;-78
2021/11/16 02:38:51;;;;;;;3.53;2.60;;;22.00;55.20;;;;;;5032256;28;20430;-78
2021/11/16 02:41:17;;;;;;;2.87;2.37;;;22.00;55.20;;;;;;5031577;28;20449;-78
2021/11/16 02:43:45;;;;;;;3.17;2.20;;;22.00;55.30;;;;;;5048604;28;20419;-78
2021/11/16 02:46:12;;;;;;;2.40;2.20;;;22.00;55.20;;;;;;5044927;28;20179;-77
2021/11/16 02:48:39;;;;;;;3.30;2.27;;;22.00;55.20;;;;;;5032403;28;20426;-78
2021/11/16 02:51:10;;;;;;;3.60;2.57;;;22.00;55.20;;;;;;5050549;28;20501;-78
2021/11/16 02:53:38;;;;;;;2.63;2.00;;;22.00;55.20;;;;;;5049969;28;20415;-78
2021/11/16 02:56:05;;;;;;;2.27;1.87;;;22.00;55.30;;;;;;5032002;28;20430;-78
2021/11/16 02:58:31;;;;;;;2.50;2.00;;;22.00;55.30;;;;;;5050146;28;20449;-78
2021/11/16 03:01:04;;;;;;;2.60;2.00;;;22.00;55.30;;;;;;5031552;28;20422;-78
2021/11/16 03:03:30;;;;;;;2.53;2.33;;;22.00;55.30;;;;;;5049261;28;20417;-78
2021/11/16 03:05:56;;;;;;;3.20;2.57;;;22.00;55.30;;;;;;5049650;28;20820;-78
2021/11/16 03:15:09;;;;;;;2.87;2.40;;;22.00;55.30;;;;;;5029001;28;20384;-78
2021/11/16 03:18:11;;;;;;;2.90;2.43;;;21.90;55.30;;;;;;5011650;28;20450;-79
2021/11/16 03:20:38;;;;;;;2.37;1.87;;;21.90;55.30;;;;;;5029547;28;20402;-79
2021/11/16 03:23:16;;;;;;;3.50;2.47;;;21.80;55.30;;;;;;5029648;28;20431;-79
2021/11/16 03:26:20;;;;;;;2.83;1.93;;;21.90;55.30;;;;;;5011631;28;20985;-78
2021/11/16 03:28:50;;;;;;;3.50;2.40;;;21.90;55.30;;;;;;5029703;28;20383;-79
2021/11/16 03:31:29;;;;;;;2.57;2.13;;;21.90;55.30;;;;;;5027720;28;20428;-77
2021/11/16 03:33:55;;;;;;;3.30;2.47;;;21.90;55.40;;;;;;5028888;28;20414;-80
2021/11/16 03:36:23;;;;;;;3.60;2.30;;;21.90;55.90;;;;;;5028625;28;20458;-78
2021/11/16 03:38:50;;;;;;;4.73;2.20;;;21.90;55.40;;;;;;5029652;28;20421;-80
2021/11/16 03:41:16;;;;;;;3.33;2.23;;;21.90;55.30;;;;;;5011027;28;20430;-78
2021/11/16 03:43:44;;;;;;;2.33;2.03;;;21.90;55.30;;;;;;5044300;28;20425;-79
2021/11/16 03:46:10;;;;;;;2.77;2.13;;;21.90;55.30;;;;;;5046803;28;20437;-78
2021/11/16 03:48:37;;;;;;;2.67;2.30;;;21.90;55.30;;;;;;5035852;28;20412;-79
2021/11/16 03:51:03;;;;;;;2.27;2.00;;;21.90;55.30;;;;;;5028892;28;20952;-79
2021/11/16 03:53:31;;;;;;;2.60;2.03;;;21.90;55.30;;;;;;5027179;28;20415;-78
2021/11/16 03:55:57;;;;;;;3.03;2.27;;;21.90;55.30;;;;;;5028036;28;20408;-78
2021/11/16 03:58:25;;;;;;;3.23;2.77;;;21.90;55.30;;;;;;5028340;28;20423;-79
2021/11/16 04:01:00;;;;;;;3.20;2.30;;;21.90;55.80;;;;;;5026090;28;20430;-79
2021/11/16 04:03:28;;;;;;;2.77;2.10;;;21.90;55.30;;;;;;5030906;28;20842;-79
2021/11/16 04:05:54;;;;;;;2.70;2.00;;;21.90;55.30;;;;;;5030642;28;20457;-78
2021/11/16 04:08:20;;;;;;;2.97;2.10;;;21.90;55.30;;;;;;5030584;28;20430;-78
2021/11/16 04:10:47;;;;;;;2.60;2.27;;;21.90;55.30;;;;;;5031751;28;20423;-78
2021/11/16 04:13:13;;;;;;;3.30;2.43;;;21.90;55.30;;;;;;5030195;28;20441;-79
2021/11/16 04:15:40;;;;;;;2.97;2.40;;;21.90;55.30;;;;;;5047611;28;20418;-78
2021/11/16 04:18:06;;;;;;;2.33;1.93;;;21.90;55.30;;;;;;5047334;28;20226;-78
2021/11/16 04:20:35;;;;;;;3.07;2.20;;;21.90;55.30;;;;;;5047068;28;20418;-78
2021/11/16 04:23:04;;;;;;;2.50;1.90;;;21.90;55.30;;;;;;5047551;28;20410;-79
2021/11/16 04:25:32;;;;;;;2.63;2.03;;;21.90;55.30;;;;;;5047439;28;20453;-78
2021/11/16 04:27:58;;;;;;;2.97;2.23;;;21.90;55.30;;;;;;5029289;28;20458;-78
2021/11/16 04:30:26;;;;;;;2.40;2.17;;;21.90;55.30;;;;;;5028975;28;20429;-78
2021/11/16 04:32:52;;;;;;;2.00;1.77;;;21.90;55.30;;;;;;5029186;28;20458;-79
2021/11/16 04:35:18;;;;;;;2.70;2.50;;;21.90;55.30;;;;;;5019406;28;20435;-78
2021/11/16 04:37:47;;;;;;;2.63;2.43;;;21.90;55.30;;;;;;5009440;28;20521;-79
2021/11/16 04:40:17;;;;;;;2.67;2.23;;;21.90;55.30;;;;;;5028713;28;20904;-80
2021/11/16 04:42:44;;;;;;;2.30;2.00;;;21.90;55.30;;;;;;5046201;28;20403;-79
2021/11/16 04:45:18;;;;;;;2.77;1.90;;;21.90;55.30;;;;;;5046613;28;20454;-79
2021/11/16 04:47:50;;;;;;;2.43;2.13;;;21.90;55.30;;;;;;5046310;28;20528;-78
2021/11/16 04:50:39;;;;;;;3.10;2.13;;;21.90;55.30;;;;;;5046302;28;20506;-78
2021/11/16 05:03:43;;;;;;;2.10;1.77;;;21.80;55.30;;;;;;5045322;28;20398;-78
2021/11/16 05:06:09;;;;;;;2.73;2.20;;;21.80;55.30;;;;;;5046388;28;20410;-79
2021/11/16 05:08:38;;;;;;;2.87;2.20;;;21.80;55.30;;;;;;5028522;28;20214;-79
2021/11/16 05:11:04;;;;;;;2.50;2.30;;;21.80;55.30;;;;;;5027941;28;20498;-79
2021/11/16 05:13:29;;;;;;;4.90;2.63;;;21.80;55.30;;;;;;5028103;28;20499;-78
2021/11/16 05:15:55;;;;;;;2.40;2.13;;;21.80;55.30;;;;;;5046920;28;20673;-78
2021/11/16 05:18:21;;;;;;;2.53;1.90;;;21.80;55.30;;;;;;5045967;28;20227;-78
2021/11/16 05:20:46;;;;;;;2.00;1.67;;;21.80;55.30;;;;;;5046089;28;20223;-79
2021/11/16 05:23:12;;;;;;;3.33;2.50;;;21.80;55.30;;;;;;5046840;28;20653;-78
2021/11/16 05:25:38;;;;;;;3.23;2.93;;;21.80;55.30;;;;;;5028329;28;20621;-78
2021/11/16 05:28:07;;;;;;;4.27;3.20;;;21.80;55.30;;;;;;5028885;28;20422;-78
2021/11/16 05:30:35;;;;;;;3.33;2.30;;;21.80;55.20;;;;;;5044853;28;20415;-78
2021/11/16 05:33:01;;;;;;;4.63;2.50;;;21.80;55.20;;;;;;5027931;28;20506;-78
2021/11/16 05:35:26;;;;;;;2.90;2.30;;;21.80;55.20;;;;;;5034940;28;20421;-79
2021/11/16 05:37:52;;;;;;;2.57;2.30;;;21.80;55.20;;;;;;4992654;28;20507;-79
2021/11/16 05:40:18;;;;;;;2.60;2.30;;;21.80;55.30;;;;;;5007928;28;20256;-78
2021/11/16 05:42:44;;;;;;;3.23;2.93;;;21.70;55.20;;;;;;5008227;28;20180;-79
2021/11/16 05:45:10;;;;;;;3.43;2.73;;;21.70;55.20;;;;;;5008140;28;20276;-78
2021/11/16 05:47:38;;;;;;;3.20;2.40;;;21.70;55.20;;;;;;5025554;28;20165;-78
2021/11/16 05:50:05;;;;;;;3.50;2.57;;;21.70;55.20;;;;;;5008533;28;20924;-78
2021/11/16 05:52:32;;;;;;;2.97;2.63;;;21.80;55.30;;;;;;5025173;28;20467;-78
2021/11/16 05:54:58;;;;;;;3.90;2.60;;;21.70;55.20;;;;;;5007409;28;20424;-78
2021/11/16 05:57:23;;;;;;;3.10;2.70;;;21.70;55.20;;;;;;5025315;28;20411;-78
2021/11/16 06:00:30;;;;;;;3.60;2.50;;;21.80;55.30;;;;;;5014904;28;20658;-78
2021/11/16 06:03:00;;;;;;;3.50;2.60;;;21.80;55.20;;;;;;5026274;28;20191;-82
2021/11/16 06:05:26;;;;;;;4.80;3.23;;;21.80;55.30;;;;;;5044339;28;20906;-79
2021/11/16 06:07:51;;;;;;;3.50;2.30;;;21.80;55.30;;;;;;5039331;28;20415;-78
2021/11/16 06:10:17;;;;;;;3.63;2.70;;;21.80;55.30;;;;;;5010879;28;20422;-79
2021/11/16 06:12:43;;;;;;;3.53;2.80;;;21.80;55.20;;;;;;5030324;28;20266;-78
2021/11/16 06:18:31;;;;;;;5.73;3.60;;;21.80;55.20;;;;;;5029394;28;20398;-79
2021/11/16 06:20:57;;;;;;;4.03;3.10;;;21.80;55.20;;;;;;5012017;28;20443;-78
2021/11/16 06:23:23;;;;;;;7.50;3.43;;;21.80;55.20;;;;;;5035855;28;20187;-79
2021/11/16 06:25:48;;;;;;;3.73;2.87;;;21.80;55.20;;;;;;5030521;28;20258;-79
2021/11/16 06:28:14;;;;;;;3.07;2.77;;;21.80;55.20;;;;;;5048822;28;20696;-79
2021/11/16 06:30:40;;;;;;;4.67;3.13;;;21.80;55.10;;;;;;5047126;28;20247;-78
2021/11/16 06:33:23;;;;;;;5.80;3.73;;;21.90;55.20;;;;;;5027219;28;20430;-79
2021/11/16 06:35:50;;;;;;;3.97;2.83;;;21.90;55.20;;;;;;5048131;28;20445;-79
2021/11/16 06:38:16;;;;;;;3.53;3.00;;;21.90;55.20;;;;;;5030794;28;20429;-80
2021/11/16 06:40:47;;;;;;;4.60;3.30;;;21.90;55.20;;;;;;5047426;28;20533;-79
2021/11/16 06:43:27;;;;;;;3.50;2.80;;;21.90;55.20;;;;;;5048179;28;20183;-79
2021/11/16 06:45:55;;;;;;;3.90;3.00;;;21.90;55.10;;;;;;5030054;28;20469;-78
2021/11/16 06:48:22;;;;;;;5.10;3.60;;;21.90;55.20;;;;;;5030658;28;20423;-79
2021/11/16 06:50:49;;;;;;;7.40;3.03;;;21.90;55.20;;;;;;5048291;28;20764;-79
2021/11/16 06:53:24;;;;;;;4.50;2.87;;;21.90;55.20;;;;;;5048274;28;20437;-78
2021/11/16 06:55:50;;;;;;;4.00;3.23;;;21.90;55.10;;;;;;5029923;28;20437;-79
2021/11/16 06:58:16;;;;;;;4.20;3.00;;;21.90;55.20;;;;;;5048245;28;20415;-80
2021/11/16 07:04:10;;;;;;;3.17;2.73;;;21.90;55.10;;;;;;5043924;28;20211;-79
2021/11/16 07:06:50;;;;;;;4.17;2.80;;;21.90;55.20;;;;;;5027135;28;20502;-78
2021/11/16 07:09:17;;;;;;;3.23;2.90;;;21.90;55.20;;;;;;5044993;28;20414;-80
2021/11/16 07:11:55;;;;;;;3.47;2.53;;;21.90;55.20;;;;;;5047546;28;20465;-80
2021/11/16 07:14:26;;;;;;;4.60;2.60;;;21.90;55.20;;;;;;5030248;28;20432;-79
2021/11/16 07:16:55;;;;;;;4.60;2.90;;;21.90;55.20;;;;;;5028859;28;21020;-80
2021/11/16 07:19:41;;;;;;;3.10;2.70;;;21.90;55.20;;;;;;5047732;28;20414;-79
2021/11/16 07:22:14;;;;;;;3.40;2.73;;;22.00;55.20;;;;;;5043280;28;20428;-79
2021/11/16 07:24:52;;;;;;;2.93;2.63;;;21.90;55.20;;;;;;5046349;28;20830;-78
2021/11/16 07:27:22;;;;;;;3.27;2.30;;;21.90;55.10;;;;;;5047732;28;20458;-80
2021/11/16 07:29:51;;;;;;;3.53;2.80;;;21.90;55.10;;;;;;5048505;28;20501;-80
2021/11/16 07:32:25;;;;;;;3.80;2.47;;;22.00;55.20;;;;;;5048236;28;20410;-79
2021/11/16 07:34:54;;;;;;;4.13;2.70;;;22.00;55.20;;;;;;5031036;28;20445;-79
2021/11/16 07:37:25;;;;;;;2.77;2.53;;;21.90;55.10;;;;;;5030891;28;20453;-79
2021/11/16 07:39:58;;;;;;;3.60;2.37;;;22.00;55.70;;;;;;5031475;28;20428;-80
2021/11/16 07:42:30;;;;;;;2.83;2.33;;;22.00;55.10;;;;;;5030604;28;20433;-79
2021/11/16 07:45:02;;;;;;;3.93;3.37;;;22.00;55.10;;;;;;5030351;28;20502;-79
2021/11/16 07:47:42;;;;;;;3.30;2.70;;;22.00;55.10;;;;;;5047940;28;20407;-79
2021/11/16 07:50:12;;;;;;;3.57;2.70;;;22.00;55.10;;;;;;5030231;28;20426;-79
2021/11/16 07:52:38;;;;;;;3.67;2.90;;;22.00;55.10;;;;;;5030141;28;20439;-80
2021/11/16 07:55:05;;;;;;;4.83;2.87;;;22.00;55.10;;;;;;5030308;28;20426;-79
2021/11/16 07:57:42;;;;;;;4.83;3.37;;;22.00;55.10;;;;;;5047363;28;20459;-79
2021/11/16 08:00:38;;;;;;;3.00;2.70;;;22.00;55.10;;;;;;5030019;28;20421;-79
2021/11/16 08:03:14;;;;;;;3.00;2.53;;;22.00;55.10;;;;;;5029985;28;20450;-80
2021/11/16 08:10:52;;;;;;;5.20;2.67;;;22.00;55.10;;;;;;5047451;28;20395;-79
2021/11/16 08:13:29;;;;;;;4.73;3.07;;;22.00;55.10;;;;;;5023414;28;20422;-79
2021/11/16 08:16:10;;;;;;;3.00;2.50;;;22.00;55.10;;;;;;5047392;28;20395;-79
2021/11/16 08:18:56;;;;;;;4.00;2.67;;;22.00;55.10;;;;;;5048176;28;20406;-79
2021/11/16 08:21:22;;;;;;;3.90;3.17;;;22.00;55.10;;;;;;5030337;28;20419;-79
2021/11/16 08:23:59;;;;;;;3.50;2.63;;;22.00;55.10;;;;;;5048470;28;20488;-79
2021/11/16 08:26:32;;;;;;;3.40;2.80;;;22.00;55.10;;;;;;5029834;28;20410;-78
2021/11/16 08:28:58;;;;;;;5.53;2.87;;;22.00;55.10;;;;;;5030137;28;20407;-79
2021/11/16 08:31:32;;;;;;;4.10;3.00;;;22.00;55.10;;;;;;5029236;28;20414;-78
2021/11/16 08:34:19;;;;;;;3.13;2.80;;;22.00;55.10;;;;;;5046730;28;20425;-78
2021/11/16 08:36:54;;;;;;;3.90;2.93;;;22.00;55.10;;;;;;5038220;28;20453;-78
2021/11/16 08:39:33;;;;;;;3.40;2.90;;;22.00;55.10;;;;;;5047499;28;20450;-78
2021/11/16 08:41:59;;;;;;;3.20;2.67;;;22.00;55.10;;;;;;5047639;28;20737;-78
2021/11/16 08:44:34;;;;;;;2.73;1.97;;;22.00;55.10;;;;;;5029774;28;20457;-78
2021/11/16 08:47:12;;;;;;;2.77;2.50;;;22.00;55.60;;;;;;5029985;28;20418;-78
2021/11/16 08:49:42;;;;;;;2.80;2.53;;;22.10;55.10;;;;;;5029982;28;20419;-79
2021/11/16 08:52:20;;;;;;;3.80;2.73;;;22.00;55.10;;;;;;5046764;28;20401;-79
2021/11/16 08:55:18;;;;;;;2.90;2.63;;;22.00;55.10;;;;;;5046627;28;20394;-79
2021/11/16 08:57:48;;;;;;;3.13;2.50;;;22.10;55.10;;;;;;5029096;28;20414;-79
2021/11/16 09:00:25;;;;;;;4.10;2.87;;;22.00;55.10;;;;;;5029678;28;20425;-79
2021/11/16 09:03:01;;;;;;;3.20;2.60;;;22.00;55.10;;;;;;5029124;28;20410;-79
2021/11/16 09:05:36;;;;;;;3.30;2.63;;;22.10;55.10;;;;;;5029665;28;20807;-79
2021/11/16 09:08:03;;;;;;;3.63;2.60;;;22.10;55.10;;;;;;5029578;28;20414;-79
2021/11/16 09:10:37;;;;;;;2.77;2.13;;;22.10;55.10;;;;;;5046941;28;20756;-79
2021/11/16 09:13:05;;;;;;;3.63;2.70;;;22.10;55.10;;;;;;5046187;28;20456;-79
2021/11/16 09:15:48;;;;;;;3.40;2.77;;;22.10;55.10;;;;;;5029372;28;20410;-79
2021/11/16 09:18:19;;;;;;;3.33;2.60;;;22.10;55.10;;;;;;5046413;28;20422;-78
2021/11/16 09:20:54;;;;;;;3.40;3.00;;;22.00;55.00;;;;;;5041224;28;20408;-78
2021/11/16 09:23:26;;;;;;;2.97;2.17;;;22.10;55.10;;;;;;5027148;28;20456;-79
2021/11/16 09:26:07;;;;;;;3.10;2.73;;;22.10;55.10;;;;;;5045717;28;20450;-79
2021/11/16 09:28:36;;;;;;;3.17;2.63;;;22.10;55.10;;;;;;5038081;28;20402;-79
2021/11/16 09:31:27;;;;;;;3.73;3.10;;;22.00;55.00;;;;;;5025736;28;20466;-80
2021/11/16 09:33:56;;;;;;;5.87;4.13;;;22.10;55.10;;;;;;5038241;28;20472;-78
2021/11/16 09:36:30;;;;;;;7.30;5.00;;;22.00;55.10;;;;;;5027793;28;20505;-79
2021/11/16 09:38:59;;;;;;;6.43;4.90;;;22.10;55.10;;;;;;5046034;28;20424;-79
2021/11/16 09:41:30;;;;;;;5.13;4.63;;;22.00;55.00;;;;;;5045008;28;20442;-78
2021/11/16 09:44:03;;;;;;;5.93;4.70;;;22.00;55.00;;;;;;5028663;28;20425;-79
2021/11/16 09:46:30;;;;;;;4.63;3.80;;;22.00;55.10;;;;;;5041158;28;20415;-78
2021/11/16 09:49:00;;;;;;;3.40;2.77;;;22.00;55.00;;;;;;5049575;28;20442;-78
2021/11/16 09:51:26;;;;;;;4.20;3.00;;;22.10;55.10;;;;;;5048681;28;20425;-79
2021/11/16 09:54:03;;;;;;;4.23;3.83;;;22.10;55.10;;;;;;5046322;28;20436;-78
2021/11/16 09:56:30;;;;;;;3.40;3.10;;;22.10;55.10;;;;;;5030923;28;20441;-79
2021/11/16 09:58:57;;;;;;;4.30;3.70;;;22.10;55.10;;;;;;5030635;28;20426;-79
2021/11/16 10:01:45;;;;;;;5.07;3.67;;;22.10;55.00;;;;;;5025092;28;20427;-80
2021/11/16 10:04:21;;;;;;;3.90;3.50;;;22.10;55.00;;;;;;5047672;28;20549;-78
2021/11/16 10:06:47;;;;;;;3.70;3.00;;;22.10;55.00;;;;;;5048473;28;20416;-79
2021/11/16 10:09:13;;;;;;;4.77;3.30;;;22.10;55.00;;;;;;5027368;28;20411;-79
2021/11/16 10:11:42;;;;;;;4.30;3.40;;;22.10;55.00;;;;;;5028017;28;20538;-79
2021/11/16 10:14:17;;;;;;;7.80;3.50;;;22.10;55.00;;;;;;5048698;28;20198;-79
2021/11/16 10:16:44;;;;;;;5.47;3.80;;;22.20;55.10;;;;;;5028218;28;20414;-79
2021/11/16 10:19:11;;;;;;;4.03;3.30;;;22.10;55.00;;;;;;5030153;28;20422;-79
2021/11/16 10:21:42;;;;;;;4.00;3.43;;;22.20;55.10;;;;;;5018151;28;20411;-78
2021/11/16 10:24:29;;;;;;;4.60;3.93;;;22.20;55.10;;;;;;5047449;28;20480;-78
2021/11/16 10:27:22;;;;;;;4.20;3.20;;;22.20;55.00;;;;;;5046975;28;20410;-79
2021/11/16 10:30:33;;;;;;;7.87;4.13;;;22.20;55.10;;;;;;5028010;28;20414;-78
2021/11/16 10:33:24;;;;;;;4.87;3.73;;;22.20;55.10;;;;;;5042470;28;20434;-79
2021/11/16 10:35:55;;;;;;;4.00;3.60;;;22.20;55.10;;;;;;5045273;28;20414;-79
2021/11/16 10:38:29;;;;;;;5.13;3.67;;;22.20;55.10;;;;;;5047634;28;20531;-78
2021/11/16 10:40:57;;;;;;;4.30;3.40;;;22.20;55.10;;;;;;5047527;28;20418;-78
2021/11/16 10:43:37;;;;;;;4.50;4.10;;;22.20;55.10;;;;;;5047756;28;20486;-78
2021/11/16 10:46:05;;;;;;;5.23;3.60;;;22.20;55.10;;;;;;5047075;28;20491;-79
2021/11/16 10:48:31;;;;;;;5.10;4.37;;;22.20;55.10;;;;;;5029644;28;20426;-79
2021/11/16 10:50:57;;;;;;;4.30;3.43;;;22.20;55.10;;;;;;5024744;28;20909;-80
2021/11/16 10:53:49;;;;;;;7.80;3.50;;;22.30;55.20;;;;;;5025799;28;20493;-78
2021/11/16 10:56:22;;;;;;;5.10;3.80;;;22.30;55.10;;;;;;5043487;28;20537;-80
2021/11/16 10:58:49;;;;;;;4.80;3.90;;;22.30;55.20;;;;;;5027009;28;20423;-79
2021/11/16 11:01:23;;;;;;;5.00;3.50;;;22.30;55.20;;;;;;5046594;28;20885;-78
2021/11/16 11:03:56;;;;;;;3.93;3.40;;;22.30;55.20;;;;;;5028596;28;20450;-79
2021/11/16 11:06:35;;;;;;;4.43;3.27;;;22.30;55.20;;;;;;5028912;28;20509;-78
2021/11/16 11:09:06;;;;;;;5.87;3.30;;;22.30;55.10;;;;;;5046322;28;20760;-78
2021/11/16 11:11:33;;;;;;;5.07;3.63;;;22.30;55.20;;;;;;5040414;28;20417;-78
2021/11/16 11:14:17;;;;;;;4.50;3.50;;;22.30;55.10;;;;;;5028677;28;20434;-78
2021/11/16 11:16:44;;;;;;;5.07;4.33;;;22.30;55.20;;;;;;5042907;28;20410;-79
2021/11/16 11:19:11;;;;;;;5.27;3.30;;;22.30;55.10;;;;;;5026130;28;20479;-79
2021/11/16 11:21:43;;;;;;;5.80;4.00;;;22.30;55.10;;;;;;5046417;28;20415;-78
2021/11/16 11:24:15;;;;;;;4.47;3.73;;;22.30;55.10;;;;;;5043624;28;20394;-79
2021/11/16 11:26:48;;;;;;;5.40;3.73;;;22.30;55.10;;;;;;5046869;28;20415;-78
2021/11/16 11:29:39;;;;;;;3.70;3.13;;;22.30;55.20;;;;;;5043662;28;20409;-78
2021/11/16 11:32:16;;;;;;;6.37;3.60;;;22.40;55.20;;;;;;5028919;28;20424;-78
2021/11/16 11:34:59;;;;;;;3.73;3.33;;;22.40;55.20;;;;;;5026782;28;20939;-78
2021/11/16 11:37:31;;;;;;;4.60;3.20;;;22.30;55.20;;;;;;5048076;28;20430;-78
2021/11/16 11:40:03;;;;;;;4.97;3.60;;;22.30;55.20;;;;;;5047295;28;20422;-79
2021/11/16 11:42:33;;;;;;;5.80;3.90;;;22.30;55.20;;;;;;5047681;28;20513;-78
2021/11/16 11:45:24;;;;;;;3.83;3.13;;;22.30;55.20;;;;;;5029699;28;20458;-78
2021/11/16 11:47:52;;;;;;;4.70;3.87;;;22.30;55.20;;;;;;5044061;28;20410;-78
2021/11/16 11:50:25;;;;;;;4.60;3.37;;;22.30;55.20;;;;;;5047837;28;20501;-78
2021/11/16 11:52:51;;;;;;;4.80;3.23;;;22.30;55.20;;;;;;5048079;28;20482;-78
2021/11/16 11:55:17;;;;;;;8.50;3.53;;;22.30;55.20;;;;;;5029788;28;20418;-78
2021/11/16 11:57:43;;;;;;;4.07;3.50;;;22.30;55.20;;;;;;5021326;28;20450;-78
2021/11/16 12:00:10;;;;;;;4.10;3.60;;;22.30;55.20;;;;;;5028676;28;20453;-78
2021/11/16 12:02:37;;;;;;;3.10;2.80;;;22.30;55.10;;;;;;5048598;28;20180;-78
2021/11/16 12:05:03;;;;;;;4.23;3.50;;;22.30;55.10;;;;;;5048076;28;20458;-77
2021/11/16 12:14:37;;;;;;;4.43;3.73;;;22.30;55.10;;;;;;5048330;28;20418;-81
2021/11/16 12:17:07;;;;;;;4.50;3.50;;;22.30;55.20;;;;;;5051935;28;20398;-79
2021/11/16 12:19:43;;;;;;;5.30;3.60;;;22.30;55.20;;;;;;5034792;28;20387;-80
2021/11/16 12:22:38;;;;;;;4.60;4.03;;;22.30;55.20;;;;;;5035459;28;20430;-79
2021/11/16 12:25:24;;;;;;;5.80;4.67;;;22.30;55.20;;;;;;5048610;28;20527;-80
2021/11/16 12:27:53;;;;;;;11.10;7.70;;;22.30;55.10;;;;;;5046828;28;20541;-79
2021/11/16 12:30:34;;;;;;;8.90;7.50;;;22.30;55.10;;;;;;5034841;28;20441;-80
2021/11/16 12:33:00;;;;;;;10.83;5.37;;;22.20;55.00;;;;;;5051488;28;20418;-80
2021/11/16 12:35:26;;;;;;;8.03;5.30;;;22.20;55.10;;;;;;5051084;28;20434;-80
2021/11/16 12:37:58;;;;;;;7.20;5.07;;;22.20;55.10;;;;;;5034401;28;20442;-80
2021/11/16 12:40:41;;;;;;;6.07;5.30;;;22.30;55.10;;;;;;5034455;28;20195;-80
2021/11/16 12:43:07;;;;;;;8.27;5.43;;;22.20;55.10;;;;;;5052021;28;20421;-80
2021/11/16 12:45:58;;;;;;;6.53;4.70;;;22.20;55.10;;;;;;5051964;28;20447;-80
2021/11/16 12:48:41;;;;;;;7.43;5.27;;;22.20;55.10;;;;;;5033162;28;20176;-81
2021/11/16 12:51:15;;;;;;;7.20;5.03;;;22.20;55.10;;;;;;5031985;28;20921;-80
2021/11/16 12:53:53;;;;;;;8.10;5.30;;;22.20;55.10;;;;;;5035572;28;20406;-79
2021/11/16 12:56:42;;;;;;;8.00;6.40;;;22.20;55.10;;;;;;5051370;28;20418;-79
2021/11/16 12:59:10;;;;;;;5.90;5.17;;;22.20;55.10;;;;;;5032583;28;20421;-79
2021/11/16 13:01:36;;;;;;;6.57;5.20;;;22.20;55.10;;;;;;5051266;28;20399;-79
2021/11/16 13:04:06;;;;;;;7.40;6.07;;;22.20;55.10;;;;;;5049693;28;20494;-79
2021/11/16 13:06:32;;;;;;;7.70;6.27;;;22.20;55.10;;;;;;5032824;28;20186;-79
2021/11/16 13:12:43;;;;;;;9.77;5.90;;;22.20;55.10;;;;;;5050401;28;20469;-79
2021/11/16 13:15:24;;;;;;;8.00;5.90;;;22.20;55.10;;;;;;5049085;28;20434;-79
2021/11/16 13:18:10;;;;;;;7.63;6.27;;;22.20;55.10;;;;;;5033486;28;20429;-78
2021/11/16 13:20:42;;;;;;;6.00;5.17;;;22.20;55.10;;;;;;5032957;28;20442;-79
2021/11/16 13:23:18;;;;;;;9.07;5.23;;;22.20;55.20;;;;;;5051243;28;20429;-79
2021/11/16 13:25:46;;;;;;;7.70;5.40;;;22.20;55.10;;;;;;5027688;28;20879;-79
2021/11/16 13:31:11;;;;;;;7.43;5.80;;;22.20;55.10;;;;;;5055377;28;20402;-79
2021/11/16 13:33:58;;;;;;;8.07;6.43;;;22.20;55.10;;;;;;5053984;28;20405;-79
2021/11/16 13:36:29;;;;;;;7.73;6.40;;;22.20;55.10;;;;;;5054090;28;20449;-79
2021/11/16 13:39:06;;;;;;;9.47;6.23;;;22.20;55.10;;;;;;5035738;28;20425;-79
2021/11/16 13:42:10;;;;;;;7.20;5.50;;;22.20;55.10;;;;;;5053689;28;20382;-79
2021/11/16 13:44:52;;;;;;;8.20;6.27;;;22.20;55.10;;;;;;5035914;28;20453;-79
2021/11/16 13:47:28;;;;;;;7.87;6.60;;;22.20;55.10;;;;;;5054407;28;20414;-79
2021/11/16 13:50:04;;;;;;;10.27;6.13;;;22.20;55.20;;;;;;5029169;28;20413;-79
2021/11/16 13:52:44;;;;;;;8.10;5.60;;;22.10;55.10;;;;;;5054574;28;20422;-79
2021/11/16 13:55:14;;;;;;;6.43;5.27;;;22.20;55.70;;;;;;5033075;28;20429;-79
2021/11/16 13:57:45;;;;;;;9.87;6.37;;;22.20;55.10;;;;;;5034620;28;20379;-80